Time;durP1;ratioP1;P1;durP2;ratioP2;P2;SDS_P1;SDS_P2;PMS_P1;PMS_P2;Temp;Humidity;BMP_temperature;BMP_pressure;BME280_temperature;BME280_humidity;BME280_pressure;Samples;Min_cycle;Max_cycle;Signal;HPM_P1;HPM_P2
2023/07/11 00:00:40;;;;;;;3.42;3.13;;;21.60;52.80;;;;;;5075324;28;20231;-83
2023/07/11 00:03:06;;;;;;;3.83;3.25;;;21.50;52.80;;;;;;5075311;28;20165;-83
2023/07/11 00:05:32;;;;;;;3.20;2.90;;;21.60;52.90;;;;;;5074253;28;20161;-85
2023/07/11 00:07:58;;;;;;;4.32;3.05;;;21.60;52.80;;;;;;5074078;28;20158;-83
2023/07/11 00:10:24;;;;;;;3.47;3.17;;;21.50;52.90;;;;;;5075508;28;20211;-85
2023/07/11 00:12:50;;;;;;;3.88;3.20;;;21.50;52.90;;;;;;5056336;28;20166;-83
2023/07/11 00:15:16;;;;;;;3.50;3.13;;;21.50;52.90;;;;;;5074032;28;20165;-84
2023/07/11 00:17:42;;;;;;;3.35;3.00;;;21.50;53.00;;;;;;5057101;28;20569;-85
2023/07/11 00:20:09;;;;;;;3.17;2.88;;;21.50;53.00;;;;;;5073902;28;20205;-83
2023/07/11 00:22:34;;;;;;;3.10;2.80;;;21.50;53.00;;;;;;5057158;28;20303;-84
2023/07/11 00:25:00;;;;;;;3.58;3.13;;;21.50;53.00;;;;;;5073833;28;20169;-83
2023/07/11 00:27:27;;;;;;;3.78;3.20;;;21.50;53.00;;;;;;5073712;28;20150;-85
2023/07/11 00:29:53;;;;;;;3.65;3.20;;;21.50;53.00;;;;;;5057651;28;20563;-85
2023/07/11 00:32:19;;;;;;;3.20;2.90;;;21.50;53.10;;;;;;5073947;28;20647;-83
2023/07/11 00:34:45;;;;;;;3.30;3.00;;;21.50;53.10;;;;;;5073656;28;20162;-82
2023/07/11 00:37:11;;;;;;;3.53;3.20;;;21.50;53.00;;;;;;5079451;28;20224;-83
2023/07/11 00:39:37;;;;;;;3.10;2.80;;;21.60;53.00;;;;;;5060277;28;20156;-85
2023/07/11 00:42:04;;;;;;;3.58;3.28;;;21.50;53.00;;;;;;5094893;28;20244;-85
2023/07/11 00:45:01;;;;;;;3.35;3.00;;;21.50;53.10;;;;;;5076669;28;20160;-85
2023/07/11 00:47:27;;;;;;;3.60;3.30;;;21.50;53.10;;;;;;5094757;28;20167;-83
2023/07/11 00:49:57;;;;;;;3.33;3.03;;;21.50;53.10;;;;;;5094864;28;20156;-85
2023/07/11 00:52:23;;;;;;;3.28;2.97;;;21.50;53.10;;;;;;5076888;28;20157;-83
2023/07/11 00:54:51;;;;;;;3.15;2.83;;;21.50;53.10;;;;;;5076573;28;20153;-84
2023/07/11 00:57:18;;;;;;;3.33;2.88;;;21.50;53.10;;;;;;5076549;28;20592;-83
2023/07/11 00:59:44;;;;;;;3.30;3.00;;;21.50;53.20;;;;;;5094697;28;20508;-85
2023/07/11 01:02:16;;;;;;;3.30;3.00;;;21.50;53.20;;;;;;5059967;28;20164;-86
2023/07/11 01:04:43;;;;;;;3.35;3.05;;;21.50;53.20;;;;;;5059671;28;20165;-85
2023/07/11 01:07:10;;;;;;;3.47;3.17;;;21.50;53.10;;;;;;5059725;28;20179;-84
2023/07/11 01:09:36;;;;;;;3.47;3.17;;;21.50;53.20;;;;;;5094391;28;20153;-83
2023/07/11 01:12:05;;;;;;;3.40;3.00;;;21.50;53.30;;;;;;5076194;28;20179;-82
2023/07/11 01:14:31;;;;;;;3.35;2.95;;;21.50;53.20;;;;;;5076103;28;20161;-86
2023/07/11 01:16:57;;;;;;;3.42;3.13;;;21.50;53.30;;;;;;5094272;28;20588;-85
2023/07/11 01:19:23;;;;;;;3.40;3.10;;;21.50;53.30;;;;;;5094252;28;20160;-84
2023/07/11 01:21:49;;;;;;;3.53;3.17;;;21.50;53.30;;;;;;5076014;28;20242;-84
2023/07/11 01:24:15;;;;;;;3.45;3.15;;;21.50;53.30;;;;;;5075870;28;20244;-85
2023/07/11 01:26:41;;;;;;;3.50;3.08;;;21.40;53.30;;;;;;5076185;28;20666;-83
2023/07/11 01:29:08;;;;;;;3.20;2.90;;;21.50;53.30;;;;;;5093941;28;20308;-86
2023/07/11 01:31:34;;;;;;;3.65;3.25;;;21.50;53.40;;;;;;5075808;28;20165;-83
2023/07/11 01:34:01;;;;;;;3.42;3.13;;;21.50;53.40;;;;;;5075898;28;20616;-84
2023/07/11 01:36:27;;;;;;;3.85;3.45;;;21.40;53.40;;;;;;5059460;28;20172;-83
2023/07/11 01:38:53;;;;;;;3.20;2.90;;;21.50;53.50;;;;;;5072348;28;20718;-84
2023/07/11 01:41:19;;;;;;;3.40;3.10;;;21.40;53.30;;;;;;5072458;28;20189;-83
2023/07/11 01:43:45;;;;;;;3.45;3.15;;;21.40;53.40;;;;;;5072333;28;20165;-84
2023/07/11 01:46:11;;;;;;;3.95;3.42;;;21.40;53.40;;;;;;5072202;28;20162;-84
2023/07/11 01:48:37;;;;;;;3.72;3.33;;;21.40;53.50;;;;;;5055902;28;20222;-83
2023/07/11 01:51:03;;;;;;;3.30;3.00;;;21.50;53.60;;;;;;5055895;28;20619;-82
2023/07/11 01:53:29;;;;;;;3.45;3.15;;;21.50;53.60;;;;;;5074162;28;20172;-83
2023/07/11 01:55:57;;;;;;;3.05;2.75;;;21.40;53.60;;;;;;5055790;28;20203;-85
2023/07/11 01:58:23;;;;;;;3.40;3.10;;;21.40;53.50;;;;;;5073336;28;20150;-85
2023/07/11 02:00:49;;;;;;;4.03;3.20;;;21.50;53.60;;;;;;5072094;28;20597;-83
2023/07/11 02:03:15;;;;;;;3.10;2.80;;;21.40;53.50;;;;;;5072129;28;20681;-85
2023/07/11 02:05:41;;;;;;;3.10;2.80;;;21.40;53.50;;;;;;5055551;28;20169;-84
2023/07/11 02:08:07;;;;;;;3.15;2.85;;;21.40;53.60;;;;;;5072209;28;20615;-86
2023/07/11 02:10:33;;;;;;;3.47;3.00;;;21.40;53.50;;;;;;5073279;28;20164;-84
2023/07/11 02:12:59;;;;;;;4.93;3.30;;;21.50;53.60;;;;;;5073093;28;20153;-84
2023/07/11 02:15:25;;;;;;;2.92;2.65;;;21.40;53.50;;;;;;5073069;28;20153;-85
2023/07/11 02:17:51;;;;;;;3.47;2.85;;;21.40;53.60;;;;;;5072322;28;20188;-84
2023/07/11 02:20:17;;;;;;;3.50;3.20;;;21.40;53.70;;;;;;5071639;28;20228;-85
2023/07/11 02:22:43;;;;;;;3.40;3.10;;;21.40;53.60;;;;;;5072055;28;20227;-85
2023/07/11 02:25:09;;;;;;;3.28;2.97;;;21.40;53.60;;;;;;5072048;28;20154;-84
2023/07/11 02:27:35;;;;;;;3.85;2.97;;;21.40;53.60;;;;;;5073268;28;20157;-83
2023/07/11 02:30:01;;;;;;;3.33;3.03;;;21.50;53.70;;;;;;5073071;28;20232;-85
2023/07/11 02:32:27;;;;;;;3.45;3.15;;;21.40;53.70;;;;;;5071711;28;20211;-84
2023/07/11 02:34:53;;;;;;;3.40;3.10;;;21.40;53.60;;;;;;5071921;28;20168;-84
2023/07/11 02:37:19;;;;;;;3.30;3.00;;;21.40;53.70;;;;;;5074690;28;20702;-86
2023/07/11 02:39:45;;;;;;;3.20;2.90;;;21.40;53.60;;;;;;5075698;28;20157;-85
2023/07/11 02:42:11;;;;;;;3.97;3.58;;;21.40;53.70;;;;;;5076517;28;20168;-84
2023/07/11 02:44:37;;;;;;;3.40;3.10;;;21.40;53.70;;;;;;5058928;28;20160;-83
2023/07/11 02:47:03;;;;;;;3.42;3.13;;;21.40;53.70;;;;;;5075609;28;20173;-86
2023/07/11 02:49:29;;;;;;;3.40;3.10;;;21.40;53.70;;;;;;5076784;28;20516;-84
2023/07/11 02:51:55;;;;;;;3.33;3.03;;;21.40;53.80;;;;;;5058787;28;20170;-85
2023/07/11 02:54:21;;;;;;;3.10;2.80;;;21.40;53.70;;;;;;5058929;28;20161;-86
2023/07/11 02:56:47;;;;;;;3.40;3.10;;;21.40;53.70;;;;;;5076843;28;20158;-84
2023/07/11 02:59:13;;;;;;;3.33;3.00;;;21.40;53.70;;;;;;5075773;28;20187;-86
2023/07/11 03:01:39;;;;;;;3.03;2.70;;;21.40;53.70;;;;;;5058850;28;20192;-83
2023/07/11 03:04:05;;;;;;;3.38;3.08;;;21.30;53.80;;;;;;5075528;28;20170;-86
2023/07/11 03:06:31;;;;;;;3.53;3.10;;;21.40;53.80;;;;;;5076639;28;20176;-86
2023/07/11 03:08:57;;;;;;;3.15;2.85;;;21.40;53.80;;;;;;5058534;28;20162;-86
2023/07/11 03:11:23;;;;;;;3.78;3.08;;;21.40;53.90;;;;;;5058427;28;20631;-84
2023/07/11 03:13:48;;;;;;;3.38;2.80;;;21.40;54.00;;;;;;5075726;28;20545;-86
2023/07/11 03:16:14;;;;;;;3.35;3.03;;;21.30;53.90;;;;;;5075308;28;20165;-84
2023/07/11 03:18:40;;;;;;;3.63;3.20;;;21.50;54.60;;;;;;5058468;28;20219;-84
2023/07/11 03:21:06;;;;;;;2.90;2.65;;;21.40;53.80;;;;;;5058836;28;20659;-85
2023/07/11 03:23:32;;;;;;;3.50;3.20;;;21.40;53.80;;;;;;5058186;28;20157;-85
2023/07/11 03:25:58;;;;;;;3.70;3.17;;;21.40;53.80;;;;;;5076089;28;20176;-85
2023/07/11 03:28:24;;;;;;;3.20;2.90;;;21.40;53.90;;;;;;5074923;28;20202;-85
2023/07/11 03:30:51;;;;;;;3.25;2.90;;;21.40;53.80;;;;;;5074780;28;20248;-83
2023/07/11 03:33:17;;;;;;;3.40;3.10;;;21.40;53.80;;;;;;5058393;28;20583;-84
2023/07/11 03:35:48;;;;;;;3.33;3.03;;;21.40;53.70;;;;;;5074720;28;20156;-85
2023/07/11 03:38:13;;;;;;;3.25;2.95;;;21.50;53.70;;;;;;5057868;28;20347;-85
2023/07/11 03:40:39;;;;;;;3.55;3.25;;;21.50;53.70;;;;;;5075241;28;20645;-83
2023/07/11 03:43:05;;;;;;;3.17;2.85;;;21.50;53.70;;;;;;5075823;28;20172;-85
2023/07/11 03:45:31;;;;;;;3.20;2.78;;;21.40;53.70;;;;;;5074566;28;20666;-84
2023/07/11 03:47:57;;;;;;;3.03;2.72;;;21.50;53.70;;;;;;5075920;28;20196;-84
2023/07/11 03:50:23;;;;;;;3.00;2.70;;;21.50;53.80;;;;;;5075669;28;20165;-84
2023/07/11 03:52:49;;;;;;;3.13;2.83;;;21.50;53.80;;;;;;5074582;28;20166;-86
2023/07/11 03:55:15;;;;;;;3.40;3.10;;;21.40;53.70;;;;;;5075892;28;20247;-83
2023/07/11 03:57:41;;;;;;;3.47;3.15;;;21.50;53.70;;;;;;5075518;28;20157;-84
2023/07/11 04:00:08;;;;;;;3.53;2.85;;;21.50;53.70;;;;;;5074249;28;20192;-87
2023/07/11 04:02:34;;;;;;;3.30;3.00;;;21.50;53.60;;;;;;5075409;28;20184;-83
2023/07/11 04:05:00;;;;;;;3.42;2.85;;;21.60;53.60;;;;;;5075408;28;20177;-85
2023/07/11 04:07:26;;;;;;;3.38;2.90;;;21.60;53.70;;;;;;5075433;28;20189;-86
2023/07/11 04:09:52;;;;;;;3.25;2.70;;;21.50;53.60;;;;;;5074087;28;20184;-85
2023/07/11 04:12:18;;;;;;;3.03;2.72;;;21.60;53.60;;;;;;5057338;28;20165;-83
2023/07/11 04:14:44;;;;;;;3.15;2.85;;;21.60;53.60;;;;;;5074553;28;20516;-86
2023/07/11 04:17:09;;;;;;;3.20;2.90;;;21.70;53.50;;;;;;5075238;28;20224;-84
2023/07/11 04:19:35;;;;;;;3.00;2.67;;;21.70;53.50;;;;;;5075542;28;20496;-84
2023/07/11 04:22:01;;;;;;;3.17;2.88;;;21.60;53.50;;;;;;5073798;28;20623;-86
2023/07/11 04:24:27;;;;;;;2.97;2.67;;;21.70;53.50;;;;;;5074320;28;20154;-84
2023/07/11 04:26:53;;;;;;;3.00;2.70;;;21.70;53.50;;;;;;5075087;28;20153;-86
2023/07/11 04:29:19;;;;;;;3.15;2.85;;;21.70;53.60;;;;;;5073745;28;20237;-85
2023/07/11 04:31:45;;;;;;;3.10;2.80;;;21.70;53.50;;;;;;5075279;28;20176;-85
2023/07/11 04:34:11;;;;;;;3.42;3.08;;;21.70;53.50;;;;;;5073514;28;20164;-84
2023/07/11 04:36:37;;;;;;;3.30;3.00;;;21.80;53.50;;;;;;5075220;28;20161;-83
2023/07/11 04:39:03;;;;;;;3.13;2.83;;;21.70;53.40;;;;;;5075112;28;20170;-85
2023/07/11 04:41:29;;;;;;;3.10;2.80;;;21.70;53.40;;;;;;5074577;28;20177;-85
2023/07/11 04:43:55;;;;;;;3.47;3.10;;;21.80;53.30;;;;;;5074611;28;20154;-85
2023/07/11 04:46:21;;;;;;;2.85;2.65;;;21.80;53.30;;;;;;5057167;28;20162;-84
2023/07/11 04:48:47;;;;;;;3.63;3.33;;;21.70;53.20;;;;;;5056607;28;20158;-86
2023/07/11 04:51:13;;;;;;;3.30;3.00;;;21.90;53.30;;;;;;5073281;28;20699;-86
2023/07/11 04:53:39;;;;;;;3.38;2.92;;;21.80;53.20;;;;;;5056768;28;20204;-84
2023/07/11 04:56:07;;;;;;;3.20;2.90;;;21.80;53.30;;;;;;5056533;28;20165;-84
2023/07/11 04:58:34;;;;;;;2.90;2.70;;;21.80;53.20;;;;;;5055931;28;20161;-86
2023/07/11 05:01:02;;;;;;;3.33;2.90;;;21.90;53.30;;;;;;5056333;28;20185;-86
2023/07/11 05:03:28;;;;;;;3.10;2.80;;;21.80;53.30;;;;;;5074282;28;20192;-85
2023/07/11 05:05:55;;;;;;;3.42;2.90;;;21.80;53.20;;;;;;5072985;28;20248;-84
2023/07/11 05:08:21;;;;;;;3.40;2.92;;;21.90;53.20;;;;;;5073224;28;20164;-84
2023/07/11 05:10:51;;;;;;;3.08;2.78;;;21.80;53.30;;;;;;5073111;28;20157;-84
2023/07/11 05:13:17;;;;;;;3.13;2.83;;;21.90;53.20;;;;;;5073117;28;20169;-84
2023/07/11 05:15:43;;;;;;;3.60;3.10;;;21.90;53.20;;;;;;5074040;28;20157;-86
2023/07/11 05:18:09;;;;;;;3.17;2.80;;;21.90;53.20;;;;;;5074018;28;20153;-86
2023/07/11 05:20:35;;;;;;;3.65;3.03;;;22.00;53.10;;;;;;5056132;28;20737;-87
2023/07/11 05:23:01;;;;;;;3.22;2.90;;;22.00;53.00;;;;;;5073230;28;20157;-84
2023/07/11 05:25:27;;;;;;;2.95;2.72;;;22.00;53.00;;;;;;5073507;28;20196;-84
2023/07/11 05:27:53;;;;;;;3.25;2.95;;;22.10;52.90;;;;;;5073913;28;20555;-84
2023/07/11 05:30:19;;;;;;;3.13;2.80;;;22.00;53.00;;;;;;5073820;28;20612;-86
2023/07/11 05:32:45;;;;;;;3.05;2.75;;;22.00;52.90;;;;;;5072754;28;20173;-84
2023/07/11 05:35:11;;;;;;;3.25;2.80;;;22.10;53.00;;;;;;5073675;28;20612;-83
2023/07/11 05:37:36;;;;;;;3.13;2.83;;;22.10;53.00;;;;;;5055816;28;20229;-85
2023/07/11 05:40:03;;;;;;;3.50;3.17;;;22.00;53.20;;;;;;5072296;28;20174;-87
2023/07/11 05:42:29;;;;;;;3.03;2.72;;;21.90;53.50;;;;;;5072451;28;20529;-86
2023/07/11 05:44:54;;;;;;;3.35;2.85;;;21.80;54.20;;;;;;5073565;28;20158;-85
2023/07/11 05:47:20;;;;;;;3.50;2.60;;;21.80;54.60;;;;;;5072151;28;20172;-84
2023/07/11 05:49:46;;;;;;;3.05;2.75;;;21.70;54.90;;;;;;5073407;28;20172;-85
2023/07/11 05:52:12;;;;;;;3.00;2.70;;;21.70;55.00;;;;;;5072223;28;20516;-84
2023/07/11 05:54:38;;;;;;;2.88;2.58;;;21.80;55.10;;;;;;5072242;28;20158;-84
2023/07/11 05:57:04;;;;;;;3.13;2.83;;;21.80;55.50;;;;;;5072174;28;20161;-85
2023/07/11 05:59:30;;;;;;;2.70;2.50;;;21.70;55.30;;;;;;5072121;28;20192;-84
2023/07/11 06:01:56;;;;;;;2.70;2.50;;;21.80;56.00;;;;;;5073134;28;20220;-86
2023/07/11 06:04:22;;;;;;;2.78;2.55;;;21.80;55.90;;;;;;5055617;28;20531;-85
2023/07/11 06:06:49;;;;;;;3.00;2.70;;;21.80;55.70;;;;;;5072102;28;20169;-86
2023/07/11 06:09:16;;;;;;;2.50;2.30;;;21.80;55.90;;;;;;5056033;28;20226;-83
2023/07/11 06:11:45;;;;;;;2.90;2.60;;;21.80;56.00;;;;;;5071345;28;20218;-83
2023/07/11 06:14:11;;;;;;;2.90;2.60;;;21.70;55.80;;;;;;5055181;28;20623;-83
2023/07/11 06:16:38;;;;;;;2.38;2.17;;;21.70;56.30;;;;;;5073262;28;20171;-85
2023/07/11 06:19:04;;;;;;;2.78;2.53;;;21.80;56.40;;;;;;5055113;28;20192;-84
2023/07/11 06:21:30;;;;;;;2.55;2.35;;;21.70;56.20;;;;;;5071882;28;20180;-86
2023/07/11 06:23:56;;;;;;;2.60;2.40;;;21.80;56.60;;;;;;5071975;28;20612;-85
2023/07/11 06:26:22;;;;;;;2.65;2.45;;;21.80;57.00;;;;;;5072989;28;20211;-85
2023/07/11 06:28:48;;;;;;;3.15;2.85;;;21.80;56.50;;;;;;5073090;28;20153;-87
2023/07/11 06:31:15;;;;;;;2.80;2.60;;;21.70;56.60;;;;;;5072326;28;20161;-85
2023/07/11 06:33:41;;;;;;;2.97;2.70;;;21.70;56.70;;;;;;5073020;28;20161;-84
2023/07/11 06:36:07;;;;;;;2.60;2.40;;;21.80;56.90;;;;;;5072028;28;20164;-86
2023/07/11 06:38:33;;;;;;;2.67;2.47;;;21.80;57.10;;;;;;5054983;28;20307;-83
2023/07/11 06:40:59;;;;;;;2.72;2.50;;;21.80;56.90;;;;;;5071793;28;20197;-86
2023/07/11 06:43:26;;;;;;;2.42;2.22;;;21.80;57.10;;;;;;5072969;28;20536;-86
2023/07/11 06:45:53;;;;;;;2.70;2.50;;;21.70;57.10;;;;;;5071753;28;20188;-86
2023/07/11 06:48:19;;;;;;;3.10;2.80;;;21.80;57.10;;;;;;5073366;28;20516;-85
2023/07/11 06:50:48;;;;;;;2.17;1.98;;;21.70;57.30;;;;;;5055723;28;20169;-84
2023/07/11 06:53:14;;;;;;;2.70;2.50;;;21.80;57.50;;;;;;5055262;28;20174;-85
2023/07/11 06:55:48;;;;;;;2.45;2.25;;;21.70;57.50;;;;;;5072933;28;20570;-85
2023/07/11 06:58:14;;;;;;;2.63;2.42;;;21.70;57.90;;;;;;5071638;28;20595;-84
2023/07/11 07:00:41;;;;;;;2.60;2.40;;;21.70;58.00;;;;;;5072719;28;20618;-84
2023/07/11 07:03:11;;;;;;;2.35;2.15;;;21.70;57.70;;;;;;5071698;28;20153;-85
2023/07/11 07:05:36;;;;;;;2.35;2.15;;;21.70;58.00;;;;;;5071478;28;20244;-84
2023/07/11 07:08:03;;;;;;;2.60;2.40;;;21.80;57.80;;;;;;5071436;28;20192;-86
2023/07/11 07:10:29;;;;;;;2.50;2.30;;;21.70;57.90;;;;;;5072690;28;20169;-84
2023/07/11 07:12:54;;;;;;;2.50;2.30;;;21.70;57.90;;;;;;5071495;28;20154;-87
2023/07/11 07:15:20;;;;;;;2.20;2.00;;;21.60;57.90;;;;;;5073083;28;20185;-84
2023/07/11 07:17:46;;;;;;;2.90;2.58;;;21.70;58.20;;;;;;5074343;28;20169;-85
2023/07/11 07:20:17;;;;;;;2.53;2.20;;;21.70;58.00;;;;;;5072051;28;20189;-85
2023/07/11 07:22:43;;;;;;;2.70;2.50;;;21.70;58.00;;;;;;5006760;28;20185;-84
2023/07/11 07:25:09;;;;;;;2.63;2.35;;;21.80;57.80;;;;;;5058242;28;20158;-85
2023/07/11 07:27:35;;;;;;;2.30;2.10;;;21.80;57.90;;;;;;5075320;28;20256;-84
2023/07/11 07:30:01;;;;;;;2.50;2.30;;;21.80;57.90;;;;;;5076729;28;20249;-84
2023/07/11 07:32:26;;;;;;;2.53;2.33;;;21.80;58.10;;;;;;5075029;28;20644;-84
2023/07/11 07:34:52;;;;;;;2.72;2.25;;;21.70;58.00;;;;;;5058046;28;20158;-84
2023/07/11 07:37:18;;;;;;;2.38;2.08;;;21.70;58.20;;;;;;5057957;28;20217;-84
2023/07/11 07:39:44;;;;;;;2.85;2.42;;;21.80;58.10;;;;;;5075874;28;20173;-84
2023/07/11 07:42:10;;;;;;;2.85;2.60;;;21.80;58.20;;;;;;5058399;28;20647;-87
2023/07/11 07:44:36;;;;;;;2.40;2.20;;;21.70;58.20;;;;;;5075343;28;20596;-87
2023/07/11 07:47:01;;;;;;;2.80;2.50;;;21.80;58.20;;;;;;5074507;28;20177;-85
2023/07/11 07:49:27;;;;;;;2.35;2.15;;;21.80;58.10;;;;;;5074896;28;20596;-86
2023/07/11 07:51:54;;;;;;;2.60;2.40;;;21.80;58.20;;;;;;5074534;28;20520;-85
2023/07/11 07:54:20;;;;;;;2.40;2.20;;;21.80;58.10;;;;;;5074811;28;20168;-85
2023/07/11 07:56:45;;;;;;;2.38;2.17;;;21.70;58.10;;;;;;5075693;28;20162;-84
2023/07/11 07:59:11;;;;;;;2.40;2.20;;;21.90;58.10;;;;;;5057948;28;20172;-85
2023/07/11 08:01:37;;;;;;;2.30;2.10;;;21.90;58.10;;;;;;5075756;28;20674;-85
2023/07/11 08:04:03;;;;;;;2.75;2.50;;;21.80;58.10;;;;;;5077059;28;20678;-85
2023/07/11 08:06:29;;;;;;;2.40;2.00;;;21.80;58.20;;;;;;5058657;28;20211;-84
2023/07/11 08:08:55;;;;;;;2.30;2.10;;;21.90;58.10;;;;;;5076164;28;20161;-84
2023/07/11 08:11:21;;;;;;;2.33;2.13;;;21.90;57.90;;;;;;5075410;28;20589;-85
2023/07/11 08:13:47;;;;;;;2.30;2.10;;;22.00;57.80;;;;;;5076735;28;20514;-87
2023/07/11 08:16:13;;;;;;;2.22;2.03;;;22.00;57.80;;;;;;5074538;28;20166;-85
2023/07/11 08:18:39;;;;;;;2.42;2.20;;;21.90;57.70;;;;;;5058319;28;20165;-84
2023/07/11 08:21:05;;;;;;;2.67;1.90;;;21.90;57.70;;;;;;5074721;28;20264;-85
2023/07/11 08:23:31;;;;;;;2.20;2.00;;;21.90;57.80;;;;;;5057859;28;20160;-84
2023/07/11 08:25:57;;;;;;;2.17;1.98;;;21.80;57.90;;;;;;5057820;28;20165;-86
2023/07/11 08:28:23;;;;;;;2.22;2.03;;;21.90;57.90;;;;;;5076112;28;20176;-86
2023/07/11 08:30:49;;;;;;;2.22;2.03;;;21.90;57.80;;;;;;5075368;28;20559;-85
2023/07/11 08:33:15;;;;;;;2.10;1.90;;;21.90;57.80;;;;;;5074166;28;20165;-85
2023/07/11 08:35:41;;;;;;;2.10;1.90;;;21.90;57.50;;;;;;5074744;28;20168;-86
2023/07/11 08:38:11;;;;;;;2.13;1.92;;;21.90;57.60;;;;;;5087629;28;20354;-85
2023/07/11 08:40:43;;;;;;;2.10;1.90;;;22.00;57.50;;;;;;5045146;28;20192;-85
2023/07/11 08:43:13;;;;;;;2.20;2.00;;;21.90;57.60;;;;;;5027058;28;20179;-86
2023/07/11 08:45:46;;;;;;;2.13;1.92;;;22.00;57.50;;;;;;5060815;28;20538;-86
2023/07/11 08:48:16;;;;;;;2.22;2.03;;;22.00;57.20;;;;;;5095391;28;20245;-85
2023/07/11 08:51:12;;;;;;;2.15;1.95;;;22.00;57.00;;;;;;5077454;28;20153;-84
2023/07/11 08:53:43;;;;;;;2.40;2.20;;;22.00;57.10;;;;;;5077489;28;20230;-85
2023/07/11 08:56:40;;;;;;;2.45;2.25;;;22.00;57.10;;;;;;5077404;28;20153;-84
2023/07/11 08:59:10;;;;;;;2.35;2.15;;;22.00;57.10;;;;;;5096525;28;20635;-86
2023/07/11 09:01:42;;;;;;;2.15;1.95;;;22.00;56.90;;;;;;5062112;28;20196;-84
2023/07/11 09:04:11;;;;;;;2.38;2.17;;;22.00;56.70;;;;;;5096852;28;20236;-86
2023/07/11 09:06:43;;;;;;;2.22;2.03;;;22.00;56.60;;;;;;5077619;28;20159;-85
2023/07/11 09:09:10;;;;;;;2.30;2.10;;;22.00;56.40;;;;;;5077204;28;20153;-84
2023/07/11 09:11:42;;;;;;;2.15;1.95;;;22.10;56.40;;;;;;5077026;28;20187;-84
2023/07/11 09:14:33;;;;;;;2.40;2.20;;;22.10;56.30;;;;;;5076805;28;20268;-84
2023/07/11 09:17:05;;;;;;;2.22;2.03;;;22.10;56.40;;;;;;5076953;28;20165;-84
2023/07/11 09:20:00;;;;;;;2.10;1.90;;;22.00;56.50;;;;;;5076546;28;20153;-86
2023/07/11 09:22:44;;;;;;;2.33;2.13;;;22.10;56.00;;;;;;5076877;28;20167;-85
2023/07/11 09:25:19;;;;;;;2.22;2.03;;;22.20;56.00;;;;;;5076738;28;20157;-85
2023/07/11 09:27:53;;;;;;;2.30;2.10;;;22.10;56.00;;;;;;5095099;28;20159;-85
2023/07/11 09:30:32;;;;;;;2.42;2.22;;;22.10;56.00;;;;;;5011334;28;20653;-87
2023/07/11 09:33:11;;;;;;;2.40;2.20;;;22.10;55.80;;;;;;5059907;28;20661;-84
2023/07/11 09:35:37;;;;;;;2.40;2.20;;;22.10;56.00;;;;;;5077147;28;20168;-86
2023/07/11 09:38:07;;;;;;;2.10;1.95;;;22.10;56.00;;;;;;5059742;28;20227;-85
2023/07/11 09:40:36;;;;;;;1.95;1.85;;;22.00;56.70;;;;;;5077588;28;20177;-89
2023/07/11 09:43:02;;;;;;;2.20;2.00;;;22.00;56.00;;;;;;5077216;28;20145;-86
2023/07/11 09:45:33;;;;;;;2.28;2.08;;;22.00;55.90;;;;;;5077307;28;20684;-85
2023/07/11 09:48:27;;;;;;;2.30;2.10;;;22.00;55.90;;;;;;5076719;28;20157;-86
2023/07/11 09:51:22;;;;;;;2.67;1.95;;;22.00;55.90;;;;;;5095766;28;20197;-85
2023/07/11 09:53:48;;;;;;;2.30;2.10;;;22.00;55.80;;;;;;5077422;28;20203;-86
2023/07/11 09:56:16;;;;;;;2.40;2.20;;;22.10;55.50;;;;;;5075499;28;20547;-85
2023/07/11 09:58:47;;;;;;;2.22;2.03;;;22.10;55.60;;;;;;5075946;28;20152;-86
2023/07/11 10:01:23;;;;;;;2.33;2.13;;;22.00;55.60;;;;;;5075490;28;20285;-83
2023/07/11 10:03:48;;;;;;;2.30;2.10;;;22.00;55.70;;;;;;5075829;28;20144;-85
2023/07/11 10:06:28;;;;;;;2.25;2.05;;;22.00;55.70;;;;;;5075488;28;20559;-83
2023/07/11 10:08:54;;;;;;;2.58;2.10;;;22.00;55.40;;;;;;5058724;28;20639;-85
2023/07/11 10:11:20;;;;;;;2.53;2.33;;;22.10;55.30;;;;;;5093287;28;20253;-86
2023/07/11 10:13:46;;;;;;;2.20;2.00;;;22.10;55.40;;;;;;5093446;28;20165;-84
2023/07/11 10:16:17;;;;;;;2.42;2.22;;;22.10;55.30;;;;;;5093277;28;20236;-84
2023/07/11 10:18:44;;;;;;;2.80;2.45;;;22.10;55.10;;;;;;5075469;28;20201;-83
2023/07/11 10:21:17;;;;;;;3.33;2.05;;;22.10;54.90;;;;;;5075376;28;20181;-83
2023/07/11 10:23:43;;;;;;;3.35;2.00;;;22.20;54.70;;;;;;5075251;28;20145;-84
2023/07/11 10:26:27;;;;;;;2.20;2.00;;;22.20;54.70;;;;;;5075412;28;20168;-87
2023/07/11 10:29:00;;;;;;;4.28;2.35;;;22.20;54.50;;;;;;5075144;28;20176;-86
2023/07/11 10:31:31;;;;;;;2.58;1.98;;;22.30;54.40;;;;;;5093271;28;20657;-86
2023/07/11 10:34:00;;;;;;;2.42;2.00;;;22.30;54.30;;;;;;5075098;28;20168;-85
2023/07/11 10:36:30;;;;;;;2.75;2.30;;;22.30;54.30;;;;;;5070472;28;20199;-83
2023/07/11 10:38:59;;;;;;;4.25;2.30;;;22.30;54.40;;;;;;5022217;28;20260;-86
2023/07/11 10:41:35;;;;;;;3.72;2.20;;;22.20;54.50;;;;;;5054647;28;20636;-85
2023/07/11 10:44:02;;;;;;;2.95;2.03;;;22.20;54.50;;;;;;5055537;28;20638;-84
2023/07/11 10:46:36;;;;;;;7.80;2.15;;;22.20;54.30;;;;;;5038622;28;20252;-86
2023/07/11 10:49:06;;;;;;;2.72;2.13;;;22.20;54.40;;;;;;5087857;28;20169;-84
2023/07/11 10:51:43;;;;;;;3.30;2.22;;;22.20;54.10;;;;;;5058947;28;20169;-86
2023/07/11 10:54:18;;;;;;;2.50;2.00;;;22.20;54.10;;;;;;5083815;28;20179;-84
2023/07/11 10:56:45;;;;;;;2.47;1.90;;;22.20;54.10;;;;;;5056486;28;20164;-85
2023/07/11 10:59:13;;;;;;;2.75;2.08;;;22.20;54.00;;;;;;5059440;28;20153;-86
2023/07/11 11:02:00;;;;;;;3.20;2.30;;;22.20;53.70;;;;;;5059311;28;20196;-86
2023/07/11 11:04:50;;;;;;;5.60;2.20;;;22.30;53.60;;;;;;5044962;28;20184;-83
2023/07/11 11:07:36;;;;;;;4.07;2.40;;;22.20;53.40;;;;;;5097237;28;20161;-86
2023/07/11 11:10:20;;;;;;;3.78;2.10;;;22.30;53.30;;;;;;5067643;28;20555;-86
2023/07/11 11:13:02;;;;;;;2.75;2.40;;;22.30;53.40;;;;;;5063773;28;20218;-84
2023/07/11 11:15:51;;;;;;;2.97;2.13;;;22.30;53.00;;;;;;5043355;28;20184;-84
2023/07/11 11:18:40;;;;;;;2.97;2.10;;;22.30;52.80;;;;;;5050000;28;20248;-85
2023/07/11 11:21:26;;;;;;;2.20;2.00;;;22.30;52.80;;;;;;5065238;28;20204;-83
2023/07/11 11:24:04;;;;;;;3.15;2.20;;;22.30;52.70;;;;;;5061796;28;20520;-84
2023/07/11 11:26:53;;;;;;;3.05;2.00;;;22.30;52.90;;;;;;5066581;28;20627;-84
2023/07/11 11:29:31;;;;;;;6.03;2.30;;;22.30;52.60;;;;;;5081642;28;20235;-83
2023/07/11 11:32:15;;;;;;;3.05;2.20;;;22.30;52.80;;;;;;5060103;28;20184;-84
2023/07/11 11:34:48;;;;;;;2.83;2.50;;;22.30;52.70;;;;;;5078517;28;20518;-84
2023/07/11 11:37:30;;;;;;;3.10;2.22;;;22.30;52.60;;;;;;5058664;28;20722;-85
2023/07/11 11:40:09;;;;;;;3.50;2.13;;;22.30;52.70;;;;;;5059082;28;20636;-84
2023/07/11 11:42:35;;;;;;;2.15;1.95;;;22.30;52.40;;;;;;5042607;28;20173;-85
2023/07/11 11:45:03;;;;;;;3.05;2.20;;;22.30;52.50;;;;;;5074724;28;20233;-84
2023/07/11 11:47:29;;;;;;;4.05;2.20;;;22.30;52.60;;;;;;5058299;28;20150;-84
2023/07/11 11:49:55;;;;;;;2.63;2.22;;;22.30;52.60;;;;;;5041252;28;20169;-85
2023/07/11 11:52:22;;;;;;;3.42;2.40;;;22.30;52.60;;;;;;5075045;28;20180;-85
2023/07/11 11:54:48;;;;;;;3.15;2.28;;;22.30;52.60;;;;;;5044479;28;20173;-86
2023/07/11 11:57:31;;;;;;;3.65;2.60;;;22.30;52.60;;;;;;5037946;28;20241;-85
2023/07/11 11:59:58;;;;;;;2.55;2.22;;;22.20;52.60;;;;;;5037666;28;20245;-84
2023/07/11 12:02:39;;;;;;;2.42;2.22;;;22.30;52.30;;;;;;5054283;28;20209;-84
2023/07/11 12:05:18;;;;;;;2.40;2.20;;;22.40;51.90;;;;;;5054207;28;20162;-86
2023/07/11 12:07:43;;;;;;;2.25;2.05;;;22.40;51.90;;;;;;5037993;28;20261;-86
2023/07/11 12:10:13;;;;;;;3.05;2.30;;;22.40;51.90;;;;;;5037688;28;20234;-86
2023/07/11 12:13:16;;;;;;;3.92;1.90;;;22.40;52.50;;;;;;5020807;28;20189;-86
2023/07/11 12:15:46;;;;;;;3.55;2.20;;;22.40;51.80;;;;;;5052914;28;20165;-85
2023/07/11 12:18:28;;;;;;;3.00;2.05;;;22.40;51.50;;;;;;5052785;28;20154;-82
2023/07/11 12:21:16;;;;;;;2.10;1.90;;;22.50;51.30;;;;;;5037128;28;20201;-86
2023/07/11 12:23:44;;;;;;;2.10;1.98;;;22.30;51.00;;;;;;5053422;28;20146;-83
2023/07/11 12:26:22;;;;;;;2.10;1.90;;;22.40;51.20;;;;;;5037000;28;20189;-86
2023/07/11 12:28:48;;;;;;;2.20;1.98;;;22.40;51.00;;;;;;5053061;28;20158;-85
2023/07/11 12:31:18;;;;;;;3.10;1.77;;;22.50;50.90;;;;;;5053855;28;20189;-84
2023/07/11 12:34:01;;;;;;;3.97;2.35;;;22.50;50.80;;;;;;5037130;28;20167;-85
2023/07/11 12:36:40;;;;;;;3.53;2.30;;;22.40;50.80;;;;;;5053975;28;20173;-85
2023/07/11 12:39:24;;;;;;;2.30;1.98;;;22.50;50.60;;;;;;5055449;28;20184;-85
2023/07/11 12:41:58;;;;;;;2.95;2.05;;;22.50;50.50;;;;;;5054758;28;20174;-86
2023/07/11 12:44:24;;;;;;;2.30;2.10;;;22.50;50.60;;;;;;5036893;28;20169;-84
2023/07/11 12:46:51;;;;;;;2.17;1.98;;;22.50;50.50;;;;;;5053470;28;20158;-85
2023/07/11 12:49:23;;;;;;;2.05;1.88;;;22.50;50.50;;;;;;5053689;28;20309;-85
2023/07/11 12:51:49;;;;;;;2.00;1.90;;;22.50;50.50;;;;;;5054515;28;20212;-86
2023/07/11 12:54:20;;;;;;;2.20;2.00;;;22.50;50.40;;;;;;5054692;28;20158;-84
2023/07/11 12:56:47;;;;;;;2.30;2.10;;;22.50;50.30;;;;;;5053200;28;20173;-85